スィクティフカル の空港の天気 - METARとTAF

Syktyvkar ( UUYY / SCW ) - ロシア スィクティフカル
飛行場実況気象(Metar)
観測時間11/14 19:30 MSK (11/14 16:30 UTC)
風向・風速南南西 3m/s
視程4900m
天気現象弱いしゅう雪
少しの雲 雲底高度 300m
全天の8割程度の雲 雲底高度 550m
全天を覆う雲 雲底高度 1250m
気温-4℃
湿度100%
気圧1023hPa
METARUUYY 141630Z 21003MPS 4900 -SHSN FEW010 BKN018CB OVC041 M04/M04 Q1023 R18/490731 TEMPO 1000 SHSN RMK QFE759/1012
過去の天気等 Google飛行場航空写真 Wunderground天気予報

過去48時間のMETAR

飛行場予報(TAF)
発表時間: 11/14 17:00 MSK (11/14 14:00 UTC)
予報対象時間: 14日18時 MSK ~ 15日18時 MSK
風向・風速南南西 3m/s 瞬間風速 8m/s
視程3100m
天気現象弱いしゅう雪 もや
全天の8割程度の雲 雲底高度 210m
全天の8割程度の積乱雲 雲底高度 460m
14日18時 MSK ~ 14日24時 MSK に一時的に
視程1000m
天気現象しゅう雪 氷雨
全天の8割程度の雲 雲底高度 120m
全天の8割程度の積乱雲 雲底高度 370m
15日0時 MSK ~ 15日7時 MSK に一時的に
風向・風速不定 1m/s
視程300m
天気現象氷霧
全天を覆う雲 鉛直視程 60m
15日7時 MSK ~ 15日18時 MSK に一時的に
視程1000m
天気現象しゅう雪
全天の8割程度の雲 雲底高度 120m
全天の8割程度の積乱雲 雲底高度 370m
TAF UUYY 141400Z 1415/1515 21003G08MPS 3100 -SHSN BR BKN007 BKN015CB
TEMPO 1415/1421 1000 SHSN FZRA BKN004 BKN012CB
TEMPO 1421/1504 VRB01MPS 0300 FZFG VV002
TEMPO 1504/1515 1000 SHSN BKN004 BKN012CB